sensor_id;sensor_type;location;lat;lon;timestamp;P1;durP1;ratioP1;P2;durP2;ratioP2
7080;SDS011;3582;51.506;11.948;2022-10-16T00:00:53;7.10;;;1.57;;
7080;SDS011;3582;51.506;11.948;2022-10-16T00:03:19;1.60;;;1.10;;
7080;SDS011;3582;51.506;11.948;2022-10-16T00:05:45;1.93;;;1.17;;
7080;SDS011;3582;51.506;11.948;2022-10-16T00:08:11;3.67;;;1.50;;
7080;SDS011;3582;51.506;11.948;2022-10-16T00:10:38;1.70;;;1.30;;
7080;SDS011;3582;51.506;11.948;2022-10-16T00:13:04;1.47;;;1.37;;
7080;SDS011;3582;51.506;11.948;2022-10-16T00:15:35;2.43;;;1.00;;
7080;SDS011;3582;51.506;11.948;2022-10-16T00:18:03;2.30;;;1.20;;
7080;SDS011;3582;51.506;11.948;2022-10-16T00:20:29;2.07;;;1.40;;
7080;SDS011;3582;51.506;11.948;2022-10-16T00:22:56;1.37;;;1.23;;
7080;SDS011;3582;51.506;11.948;2022-10-16T00:25:22;1.10;;;1.10;;
7080;SDS011;3582;51.506;11.948;2022-10-16T00:27:48;1.30;;;1.20;;
7080;SDS011;3582;51.506;11.948;2022-10-16T00:30:14;3.33;;;1.37;;
7080;SDS011;3582;51.506;11.948;2022-10-16T00:32:40;2.70;;;1.60;;
7080;SDS011;3582;51.506;11.948;2022-10-16T00:35:06;1.57;;;1.20;;
7080;SDS011;3582;51.506;11.948;2022-10-16T00:37:32;1.73;;;1.73;;
7080;SDS011;3582;51.506;11.948;2022-10-16T00:39:58;1.27;;;1.20;;
7080;SDS011;3582;51.506;11.948;2022-10-16T00:42:24;1.30;;;1.30;;
7080;SDS011;3582;51.506;11.948;2022-10-16T00:44:52;1.43;;;1.30;;
7080;SDS011;3582;51.506;11.948;2022-10-16T00:49:44;2.30;;;1.30;;
7080;SDS011;3582;51.506;11.948;2022-10-16T00:52:11;1.37;;;1.20;;
7080;SDS011;3582;51.506;11.948;2022-10-16T00:54:37;1.50;;;1.40;;
7080;SDS011;3582;51.506;11.948;2022-10-16T00:57:04;1.37;;;1.37;;
7080;SDS011;3582;51.506;11.948;2022-10-16T00:59:32;1.50;;;1.50;;
7080;SDS011;3582;51.506;11.948;2022-10-16T01:01:58;1.30;;;1.30;;
7080;SDS011;3582;51.506;11.948;2022-10-16T01:04:25;1.40;;;1.40;;
7080;SDS011;3582;51.506;11.948;2022-10-16T01:09:24;2.20;;;1.47;;
7080;SDS011;3582;51.506;11.948;2022-10-16T01:12:04;1.40;;;1.40;;
7080;SDS011;3582;51.506;11.948;2022-10-16T01:14:33;3.03;;;1.40;;
7080;SDS011;3582;51.506;11.948;2022-10-16T01:17:04;2.43;;;1.93;;
7080;SDS011;3582;51.506;11.948;2022-10-16T01:21:58;1.90;;;1.80;;
7080;SDS011;3582;51.506;11.948;2022-10-16T01:27:11;2.10;;;1.73;;
7080;SDS011;3582;51.506;11.948;2022-10-16T01:32:11;1.83;;;1.63;;
7080;SDS011;3582;51.506;11.948;2022-10-16T01:34:42;1.47;;;1.47;;
7080;SDS011;3582;51.506;11.948;2022-10-16T01:37:27;2.40;;;2.30;;
7080;SDS011;3582;51.506;11.948;2022-10-16T01:39:55;1.87;;;1.77;;
7080;SDS011;3582;51.506;11.948;2022-10-16T01:42:24;6.07;;;2.10;;
7080;SDS011;3582;51.506;11.948;2022-10-16T01:44:52;1.90;;;1.90;;
7080;SDS011;3582;51.506;11.948;2022-10-16T01:47:18;2.80;;;2.47;;
7080;SDS011;3582;51.506;11.948;2022-10-16T01:49:45;1.87;;;1.77;;
7080;SDS011;3582;51.506;11.948;2022-10-16T01:52:13;1.87;;;1.77;;
7080;SDS011;3582;51.506;11.948;2022-10-16T01:54:41;2.30;;;2.20;;
7080;SDS011;3582;51.506;11.948;2022-10-16T01:57:08;2.20;;;2.00;;
7080;SDS011;3582;51.506;11.948;2022-10-16T01:59:35;2.33;;;2.13;;
7080;SDS011;3582;51.506;11.948;2022-10-16T02:02:04;1.63;;;1.53;;
7080;SDS011;3582;51.506;11.948;2022-10-16T02:07:34;1.83;;;1.73;;
7080;SDS011;3582;51.506;11.948;2022-10-16T02:10:00;1.50;;;1.50;;
7080;SDS011;3582;51.506;11.948;2022-10-16T02:12:31;2.50;;;2.30;;
7080;SDS011;3582;51.506;11.948;2022-10-16T02:14:58;5.23;;;3.30;;
7080;SDS011;3582;51.506;11.948;2022-10-16T02:17:24;2.40;;;2.20;;
7080;SDS011;3582;51.506;11.948;2022-10-16T02:19:51;2.40;;;2.20;;
7080;SDS011;3582;51.506;11.948;2022-10-16T02:22:20;2.77;;;2.63;;
7080;SDS011;3582;51.506;11.948;2022-10-16T02:24:51;2.07;;;1.87;;
7080;SDS011;3582;51.506;11.948;2022-10-16T02:29:49;4.23;;;2.00;;
7080;SDS011;3582;51.506;11.948;2022-10-16T02:32:16;2.10;;;2.00;;
7080;SDS011;3582;51.506;11.948;2022-10-16T02:34:45;1.73;;;1.63;;
7080;SDS011;3582;51.506;11.948;2022-10-16T02:37:12;2.40;;;1.80;;
7080;SDS011;3582;51.506;11.948;2022-10-16T02:39:38;3.63;;;1.70;;
7080;SDS011;3582;51.506;11.948;2022-10-16T02:42:06;1.73;;;1.73;;
7080;SDS011;3582;51.506;11.948;2022-10-16T02:44:35;2.70;;;1.80;;
7080;SDS011;3582;51.506;11.948;2022-10-16T02:47:01;2.10;;;2.00;;
7080;SDS011;3582;51.506;11.948;2022-10-16T02:49:27;2.80;;;2.20;;
7080;SDS011;3582;51.506;11.948;2022-10-16T02:51:53;2.07;;;1.97;;
7080;SDS011;3582;51.506;11.948;2022-10-16T02:54:19;1.70;;;1.70;;
7080;SDS011;3582;51.506;11.948;2022-10-16T02:56:45;1.97;;;1.80;;
7080;SDS011;3582;51.506;11.948;2022-10-16T02:59:11;2.00;;;1.90;;
7080;SDS011;3582;51.506;11.948;2022-10-16T03:01:37;2.10;;;2.00;;
7080;SDS011;3582;51.506;11.948;2022-10-16T03:04:03;2.40;;;2.30;;
7080;SDS011;3582;51.506;11.948;2022-10-16T03:06:29;2.20;;;2.10;;
7080;SDS011;3582;51.506;11.948;2022-10-16T03:08:55;2.10;;;2.00;;
7080;SDS011;3582;51.506;11.948;2022-10-16T03:11:21;4.73;;;2.47;;
7080;SDS011;3582;51.506;11.948;2022-10-16T03:13:47;4.27;;;3.17;;
7080;SDS011;3582;51.506;11.948;2022-10-16T03:16:13;4.93;;;3.13;;
7080;SDS011;3582;51.506;11.948;2022-10-16T03:18:39;2.43;;;2.23;;
7080;SDS011;3582;51.506;11.948;2022-10-16T03:21:05;2.40;;;2.30;;
7080;SDS011;3582;51.506;11.948;2022-10-16T03:23:31;2.33;;;2.23;;
7080;SDS011;3582;51.506;11.948;2022-10-16T03:25:57;2.47;;;2.27;;
7080;SDS011;3582;51.506;11.948;2022-10-16T03:28:23;2.20;;;2.10;;
7080;SDS011;3582;51.506;11.948;2022-10-16T03:30:49;2.73;;;2.30;;
7080;SDS011;3582;51.506;11.948;2022-10-16T03:33:15;3.83;;;2.40;;
7080;SDS011;3582;51.506;11.948;2022-10-16T03:35:41;2.60;;;2.27;;
7080;SDS011;3582;51.506;11.948;2022-10-16T03:38:07;4.20;;;2.50;;
7080;SDS011;3582;51.506;11.948;2022-10-16T03:40:33;3.10;;;2.90;;
7080;SDS011;3582;51.506;11.948;2022-10-16T03:42:59;2.70;;;2.50;;
7080;SDS011;3582;51.506;11.948;2022-10-16T03:45:26;2.37;;;2.27;;
7080;SDS011;3582;51.506;11.948;2022-10-16T03:47:52;2.77;;;2.57;;
7080;SDS011;3582;51.506;11.948;2022-10-16T03:50:18;2.80;;;2.60;;
7080;SDS011;3582;51.506;11.948;2022-10-16T03:52:44;1.93;;;1.83;;
7080;SDS011;3582;51.506;11.948;2022-10-16T03:55:10;2.70;;;2.60;;
7080;SDS011;3582;51.506;11.948;2022-10-16T03:57:36;2.80;;;2.70;;
7080;SDS011;3582;51.506;11.948;2022-10-16T04:00:02;2.60;;;2.50;;
7080;SDS011;3582;51.506;11.948;2022-10-16T04:02:28;2.70;;;2.50;;
7080;SDS011;3582;51.506;11.948;2022-10-16T04:04:54;3.07;;;2.80;;
7080;SDS011;3582;51.506;11.948;2022-10-16T04:07:20;2.70;;;2.60;;
7080;SDS011;3582;51.506;11.948;2022-10-16T04:09:46;2.50;;;2.40;;
7080;SDS011;3582;51.506;11.948;2022-10-16T04:12:12;2.87;;;2.70;;
7080;SDS011;3582;51.506;11.948;2022-10-16T04:14:38;5.80;;;3.53;;
7080;SDS011;3582;51.506;11.948;2022-10-16T04:17:04;3.63;;;3.33;;
7080;SDS011;3582;51.506;11.948;2022-10-16T04:19:30;2.90;;;2.70;;
7080;SDS011;3582;51.506;11.948;2022-10-16T04:21:56;3.23;;;3.03;;
7080;SDS011;3582;51.506;11.948;2022-10-16T04:24:22;3.40;;;3.20;;
7080;SDS011;3582;51.506;11.948;2022-10-16T04:26:48;3.70;;;3.50;;
7080;SDS011;3582;51.506;11.948;2022-10-16T04:29:14;3.20;;;3.07;;
7080;SDS011;3582;51.506;11.948;2022-10-16T04:31:40;5.03;;;3.23;;
7080;SDS011;3582;51.506;11.948;2022-10-16T04:34:06;4.00;;;3.40;;
7080;SDS011;3582;51.506;11.948;2022-10-16T04:36:32;4.03;;;2.60;;
7080;SDS011;3582;51.506;11.948;2022-10-16T04:38:58;5.27;;;2.50;;
7080;SDS011;3582;51.506;11.948;2022-10-16T04:41:24;4.43;;;2.80;;
7080;SDS011;3582;51.506;11.948;2022-10-16T04:43:50;2.90;;;2.70;;
7080;SDS011;3582;51.506;11.948;2022-10-16T04:46:16;3.90;;;2.13;;
7080;SDS011;3582;51.506;11.948;2022-10-16T04:48:41;2.60;;;2.40;;
7080;SDS011;3582;51.506;11.948;2022-10-16T04:51:07;2.53;;;2.43;;
7080;SDS011;3582;51.506;11.948;2022-10-16T04:53:33;3.10;;;2.90;;
7080;SDS011;3582;51.506;11.948;2022-10-16T04:55:59;2.90;;;2.43;;
7080;SDS011;3582;51.506;11.948;2022-10-16T04:58:25;2.60;;;2.50;;
7080;SDS011;3582;51.506;11.948;2022-10-16T05:00:51;3.27;;;2.97;;
7080;SDS011;3582;51.506;11.948;2022-10-16T05:03:17;3.33;;;3.00;;
7080;SDS011;3582;51.506;11.948;2022-10-16T05:05:44;2.60;;;2.50;;
7080;SDS011;3582;51.506;11.948;2022-10-16T05:08:14;3.50;;;2.30;;
7080;SDS011;3582;51.506;11.948;2022-10-16T05:10:43;3.57;;;2.70;;
7080;SDS011;3582;51.506;11.948;2022-10-16T05:13:09;3.10;;;2.80;;
7080;SDS011;3582;51.506;11.948;2022-10-16T05:15:35;3.20;;;2.87;;
7080;SDS011;3582;51.506;11.948;2022-10-16T05:18:01;4.40;;;2.30;;
7080;SDS011;3582;51.506;11.948;2022-10-16T05:20:28;6.70;;;3.30;;
7080;SDS011;3582;51.506;11.948;2022-10-16T05:22:54;3.40;;;3.17;;
7080;SDS011;3582;51.506;11.948;2022-10-16T05:25:20;3.03;;;2.87;;
7080;SDS011;3582;51.506;11.948;2022-10-16T05:27:49;2.90;;;2.70;;
7080;SDS011;3582;51.506;11.948;2022-10-16T05:30:16;7.00;;;2.97;;
7080;SDS011;3582;51.506;11.948;2022-10-16T05:32:45;3.03;;;2.83;;
7080;SDS011;3582;51.506;11.948;2022-10-16T05:35:11;2.97;;;2.67;;
7080;SDS011;3582;51.506;11.948;2022-10-16T05:37:37;2.57;;;2.37;;
7080;SDS011;3582;51.506;11.948;2022-10-16T05:40:03;2.67;;;2.47;;
7080;SDS011;3582;51.506;11.948;2022-10-16T05:42:30;3.47;;;3.17;;
7080;SDS011;3582;51.506;11.948;2022-10-16T05:44:56;2.80;;;2.60;;
7080;SDS011;3582;51.506;11.948;2022-10-16T05:47:22;3.47;;;2.80;;
7080;SDS011;3582;51.506;11.948;2022-10-16T05:49:47;3.00;;;2.80;;
7080;SDS011;3582;51.506;11.948;2022-10-16T05:52:13;3.00;;;2.53;;
7080;SDS011;3582;51.506;11.948;2022-10-16T05:54:39;3.30;;;3.00;;
7080;SDS011;3582;51.506;11.948;2022-10-16T05:57:05;11.73;;;2.90;;
7080;SDS011;3582;51.506;11.948;2022-10-16T05:59:31;3.13;;;3.00;;
7080;SDS011;3582;51.506;11.948;2022-10-16T06:01:57;2.90;;;2.70;;
7080;SDS011;3582;51.506;11.948;2022-10-16T06:04:23;3.43;;;2.70;;
7080;SDS011;3582;51.506;11.948;2022-10-16T06:06:49;3.40;;;3.10;;
7080;SDS011;3582;51.506;11.948;2022-10-16T06:09:15;3.03;;;2.83;;
7080;SDS011;3582;51.506;11.948;2022-10-16T06:11:41;3.07;;;2.87;;
7080;SDS011;3582;51.506;11.948;2022-10-16T06:14:07;2.47;;;2.37;;
7080;SDS011;3582;51.506;11.948;2022-10-16T06:16:34;2.70;;;2.60;;
7080;SDS011;3582;51.506;11.948;2022-10-16T06:19:00;3.10;;;2.90;;
7080;SDS011;3582;51.506;11.948;2022-10-16T06:21:27;5.53;;;3.10;;
7080;SDS011;3582;51.506;11.948;2022-10-16T06:23:53;7.97;;;3.73;;
7080;SDS011;3582;51.506;11.948;2022-10-16T06:26:21;4.63;;;3.37;;
7080;SDS011;3582;51.506;11.948;2022-10-16T06:28:47;4.60;;;3.70;;
7080;SDS011;3582;51.506;11.948;2022-10-16T06:31:14;2.73;;;2.63;;
7080;SDS011;3582;51.506;11.948;2022-10-16T06:33:40;3.57;;;3.37;;
7080;SDS011;3582;51.506;11.948;2022-10-16T06:36:07;7.43;;;3.30;;
7080;SDS011;3582;51.506;11.948;2022-10-16T06:38:34;2.00;;;1.93;;
7080;SDS011;3582;51.506;11.948;2022-10-16T06:41:00;3.33;;;3.03;;
7080;SDS011;3582;51.506;11.948;2022-10-16T06:43:26;3.13;;;2.90;;
7080;SDS011;3582;51.506;11.948;2022-10-16T06:45:52;2.80;;;2.60;;
7080;SDS011;3582;51.506;11.948;2022-10-16T06:48:19;2.97;;;2.77;;
7080;SDS011;3582;51.506;11.948;2022-10-16T06:50:54;2.70;;;2.60;;
7080;SDS011;3582;51.506;11.948;2022-10-16T06:53:20;4.73;;;3.20;;
7080;SDS011;3582;51.506;11.948;2022-10-16T06:55:46;3.17;;;2.90;;
7080;SDS011;3582;51.506;11.948;2022-10-16T06:58:12;3.50;;;2.77;;
7080;SDS011;3582;51.506;11.948;2022-10-16T07:00:38;2.40;;;2.30;;
7080;SDS011;3582;51.506;11.948;2022-10-16T07:03:04;3.47;;;3.17;;
7080;SDS011;3582;51.506;11.948;2022-10-16T07:05:30;2.33;;;2.23;;
7080;SDS011;3582;51.506;11.948;2022-10-16T07:07:56;3.37;;;3.17;;
7080;SDS011;3582;51.506;11.948;2022-10-16T07:10:22;2.43;;;2.20;;
7080;SDS011;3582;51.506;11.948;2022-10-16T07:12:51;3.00;;;2.27;;
7080;SDS011;3582;51.506;11.948;2022-10-16T07:15:17;2.93;;;2.47;;
7080;SDS011;3582;51.506;11.948;2022-10-16T07:17:43;2.03;;;1.93;;
7080;SDS011;3582;51.506;11.948;2022-10-16T07:20:09;2.30;;;2.10;;
7080;SDS011;3582;51.506;11.948;2022-10-16T07:22:35;2.10;;;2.00;;
7080;SDS011;3582;51.506;11.948;2022-10-16T07:25:01;4.20;;;2.03;;
7080;SDS011;3582;51.506;11.948;2022-10-16T07:27:27;2.77;;;2.50;;
7080;SDS011;3582;51.506;11.948;2022-10-16T07:29:53;2.13;;;2.03;;
7080;SDS011;3582;51.506;11.948;2022-10-16T07:32:19;4.20;;;2.53;;
7080;SDS011;3582;51.506;11.948;2022-10-16T07:34:45;5.57;;;2.90;;
7080;SDS011;3582;51.506;11.948;2022-10-16T07:37:11;2.03;;;1.93;;
7080;SDS011;3582;51.506;11.948;2022-10-16T07:39:37;2.67;;;2.47;;
7080;SDS011;3582;51.506;11.948;2022-10-16T07:42:03;2.43;;;2.23;;
7080;SDS011;3582;51.506;11.948;2022-10-16T07:44:29;6.67;;;2.63;;
7080;SDS011;3582;51.506;11.948;2022-10-16T07:46:55;2.47;;;2.27;;
7080;SDS011;3582;51.506;11.948;2022-10-16T07:49:21;4.07;;;2.13;;
7080;SDS011;3582;51.506;11.948;2022-10-16T07:51:47;4.50;;;3.00;;
7080;SDS011;3582;51.506;11.948;2022-10-16T07:54:13;5.10;;;2.47;;
7080;SDS011;3582;51.506;11.948;2022-10-16T07:56:39;2.07;;;1.90;;
7080;SDS011;3582;51.506;11.948;2022-10-16T07:59:05;2.60;;;2.50;;
7080;SDS011;3582;51.506;11.948;2022-10-16T08:01:31;1.97;;;1.87;;
7080;SDS011;3582;51.506;11.948;2022-10-16T08:03:57;3.93;;;2.27;;
7080;SDS011;3582;51.506;11.948;2022-10-16T08:06:23;6.97;;;2.33;;
7080;SDS011;3582;51.506;11.948;2022-10-16T08:08:49;2.07;;;1.90;;
7080;SDS011;3582;51.506;11.948;2022-10-16T08:11:15;5.03;;;1.80;;
7080;SDS011;3582;51.506;11.948;2022-10-16T08:13:41;2.60;;;2.47;;
7080;SDS011;3582;51.506;11.948;2022-10-16T08:16:07;5.23;;;2.20;;
7080;SDS011;3582;51.506;11.948;2022-10-16T08:18:35;6.03;;;2.00;;
7080;SDS011;3582;51.506;11.948;2022-10-16T08:21:01;3.70;;;2.23;;
7080;SDS011;3582;51.506;11.948;2022-10-16T08:23:27;10.53;;;2.83;;
7080;SDS011;3582;51.506;11.948;2022-10-16T08:25:54;2.70;;;2.00;;
7080;SDS011;3582;51.506;11.948;2022-10-16T08:28:20;5.60;;;2.70;;
7080;SDS011;3582;51.506;11.948;2022-10-16T08:30:47;2.17;;;2.07;;
7080;SDS011;3582;51.506;11.948;2022-10-16T08:33:13;2.03;;;1.93;;
7080;SDS011;3582;51.506;11.948;2022-10-16T08:35:39;4.63;;;1.93;;
7080;SDS011;3582;51.506;11.948;2022-10-16T08:38:05;2.70;;;2.50;;
7080;SDS011;3582;51.506;11.948;2022-10-16T08:40:33;3.13;;;2.03;;
7080;SDS011;3582;51.506;11.948;2022-10-16T08:48:17;2.63;;;2.43;;
7080;SDS011;3582;51.506;11.948;2022-10-16T08:50:46;2.70;;;1.90;;
7080;SDS011;3582;51.506;11.948;2022-10-16T08:53:35;5.73;;;1.63;;
7080;SDS011;3582;51.506;11.948;2022-10-16T08:56:02;2.10;;;1.90;;
7080;SDS011;3582;51.506;11.948;2022-10-16T08:58:29;4.90;;;2.90;;
7080;SDS011;3582;51.506;11.948;2022-10-16T09:00:59;1.73;;;1.63;;
7080;SDS011;3582;51.506;11.948;2022-10-16T09:03:30;1.30;;;1.30;;
7080;SDS011;3582;51.506;11.948;2022-10-16T09:06:22;2.30;;;1.60;;
7080;SDS011;3582;51.506;11.948;2022-10-16T09:14:02;1.80;;;1.70;;
7080;SDS011;3582;51.506;11.948;2022-10-16T09:16:54;3.90;;;1.53;;
7080;SDS011;3582;51.506;11.948;2022-10-16T09:19:29;1.70;;;1.03;;
7080;SDS011;3582;51.506;11.948;2022-10-16T09:21:57;1.70;;;1.47;;
7080;SDS011;3582;51.506;11.948;2022-10-16T09:24:25;3.23;;;1.40;;
7080;SDS011;3582;51.506;11.948;2022-10-16T09:26:51;1.37;;;1.27;;
7080;SDS011;3582;51.506;11.948;2022-10-16T09:29:18;1.10;;;1.10;;
7080;SDS011;3582;51.506;11.948;2022-10-16T09:31:45;6.10;;;1.37;;
7080;SDS011;3582;51.506;11.948;2022-10-16T09:36:46;1.80;;;1.57;;
7080;SDS011;3582;51.506;11.948;2022-10-16T09:39:13;1.10;;;1.10;;
7080;SDS011;3582;51.506;11.948;2022-10-16T09:41:39;4.57;;;1.33;;
7080;SDS011;3582;51.506;11.948;2022-10-16T09:44:40;3.00;;;1.40;;
7080;SDS011;3582;51.506;11.948;2022-10-16T09:49:28;5.43;;;1.37;;
7080;SDS011;3582;51.506;11.948;2022-10-16T09:52:04;1.50;;;1.40;;
7080;SDS011;3582;51.506;11.948;2022-10-16T09:54:30;1.00;;;1.00;;
7080;SDS011;3582;51.506;11.948;2022-10-16T09:57:05;1.07;;;1.07;;
7080;SDS011;3582;51.506;11.948;2022-10-16T09:59:32;3.50;;;1.57;;
7080;SDS011;3582;51.506;11.948;2022-10-16T10:02:00;1.20;;;1.10;;
7080;SDS011;3582;51.506;11.948;2022-10-16T10:04:36;1.57;;;1.07;;
7080;SDS011;3582;51.506;11.948;2022-10-16T10:07:02;0.70;;;0.70;;
7080;SDS011;3582;51.506;11.948;2022-10-16T10:11:58;1.57;;;0.70;;
7080;SDS011;3582;51.506;11.948;2022-10-16T10:16:51;0.90;;;0.90;;
7080;SDS011;3582;51.506;11.948;2022-10-16T10:19:18;0.80;;;0.80;;
7080;SDS011;3582;51.506;11.948;2022-10-16T10:21:45;2.30;;;0.80;;
7080;SDS011;3582;51.506;11.948;2022-10-16T10:24:12;2.20;;;1.13;;
7080;SDS011;3582;51.506;11.948;2022-10-16T10:26:38;1.03;;;0.93;;
7080;SDS011;3582;51.506;11.948;2022-10-16T10:31:46;2.30;;;1.00;;
7080;SDS011;3582;51.506;11.948;2022-10-16T10:36:57;5.80;;;0.93;;
7080;SDS011;3582;51.506;11.948;2022-10-16T10:39:35;0.83;;;0.83;;
7080;SDS011;3582;51.506;11.948;2022-10-16T10:42:08;0.90;;;0.90;;
7080;SDS011;3582;51.506;11.948;2022-10-16T10:57:21;1.33;;;1.00;;
7080;SDS011;3582;51.506;11.948;2022-10-16T11:05:09;1.43;;;1.43;;
7080;SDS011;3582;51.506;11.948;2022-10-16T11:07:43;1.30;;;1.20;;
7080;SDS011;3582;51.506;11.948;2022-10-16T11:10:30;4.83;;;1.73;;
7080;SDS011;3582;51.506;11.948;2022-10-16T11:13:01;1.30;;;1.20;;
7080;SDS011;3582;51.506;11.948;2022-10-16T11:15:33;0.90;;;0.90;;
7080;SDS011;3582;51.506;11.948;2022-10-16T11:18:15;1.00;;;1.00;;
7080;SDS011;3582;51.506;11.948;2022-10-16T11:21:04;1.10;;;1.10;;
7080;SDS011;3582;51.506;11.948;2022-10-16T11:23:29;1.93;;;1.10;;
7080;SDS011;3582;51.506;11.948;2022-10-16T11:25:58;2.53;;;1.20;;
7080;SDS011;3582;51.506;11.948;2022-10-16T11:28:35;2.00;;;0.90;;
7080;SDS011;3582;51.506;11.948;2022-10-16T11:33:49;3.37;;;1.27;;
7080;SDS011;3582;51.506;11.948;2022-10-16T11:41:42;1.00;;;1.00;;
7080;SDS011;3582;51.506;11.948;2022-10-16T11:46:36;1.17;;;1.17;;
7080;SDS011;3582;51.506;11.948;2022-10-16T11:49:08;2.20;;;0.97;;
7080;SDS011;3582;51.506;11.948;2022-10-16T11:51:37;2.13;;;1.50;;
7080;SDS011;3582;51.506;11.948;2022-10-16T11:54:20;1.83;;;1.33;;
7080;SDS011;3582;51.506;11.948;2022-10-16T11:56:46;0.90;;;0.90;;
7080;SDS011;3582;51.506;11.948;2022-10-16T12:02:23;1.10;;;1.00;;
7080;SDS011;3582;51.506;11.948;2022-10-16T12:04:36;1.50;;;1.20;;
7080;SDS011;3582;51.506;11.948;2022-10-16T12:07:11;1.13;;;1.13;;
7080;SDS011;3582;51.506;11.948;2022-10-16T12:09:40;1.87;;;1.10;;
7080;SDS011;3582;51.506;11.948;2022-10-16T12:14:59;1.07;;;0.93;;
7080;SDS011;3582;51.506;11.948;2022-10-16T12:17:27;1.10;;;1.00;;
7080;SDS011;3582;51.506;11.948;2022-10-16T12:20:53;3.73;;;1.00;;
7080;SDS011;3582;51.506;11.948;2022-10-16T12:25:26;1.13;;;1.13;;
7080;SDS011;3582;51.506;11.948;2022-10-16T12:28:06;1.30;;;1.30;;
7080;SDS011;3582;51.506;11.948;2022-10-16T12:30:34;2.90;;;1.23;;
7080;SDS011;3582;51.506;11.948;2022-10-16T12:33:04;1.53;;;1.10;;
7080;SDS011;3582;51.506;11.948;2022-10-16T12:35:34;1.23;;;1.17;;
7080;SDS011;3582;51.506;11.948;2022-10-16T12:38:08;0.90;;;0.90;;
7080;SDS011;3582;51.506;11.948;2022-10-16T12:40:39;1.20;;;1.10;;
7080;SDS011;3582;51.506;11.948;2022-10-16T12:43:12;1.30;;;1.20;;
7080;SDS011;3582;51.506;11.948;2022-10-16T12:45:38;0.80;;;0.80;;
7080;SDS011;3582;51.506;11.948;2022-10-16T12:48:17;1.03;;;1.03;;
7080;SDS011;3582;51.506;11.948;2022-10-16T12:50:43;0.60;;;0.60;;
7080;SDS011;3582;51.506;11.948;2022-10-16T12:53:25;0.73;;;0.73;;
7080;SDS011;3582;51.506;11.948;2022-10-16T13:00:57;0.70;;;0.70;;
7080;SDS011;3582;51.506;11.948;2022-10-16T13:05:57;1.83;;;1.03;;
7080;SDS011;3582;51.506;11.948;2022-10-16T13:08:39;2.00;;;1.07;;
7080;SDS011;3582;51.506;11.948;2022-10-16T13:18:48;1.73;;;1.03;;
7080;SDS011;3582;51.506;11.948;2022-10-16T13:26:24;8.53;;;5.83;;
7080;SDS011;3582;51.506;11.948;2022-10-16T13:28:53;0.90;;;0.90;;
7080;SDS011;3582;51.506;11.948;2022-10-16T13:31:22;1.37;;;1.27;;
7080;SDS011;3582;51.506;11.948;2022-10-16T13:33:50;0.87;;;0.87;;
7080;SDS011;3582;51.506;11.948;2022-10-16T13:36:23;1.23;;;1.13;;
7080;SDS011;3582;51.506;11.948;2022-10-16T13:41:34;1.00;;;1.00;;
7080;SDS011;3582;51.506;11.948;2022-10-16T13:44:00;8.53;;;1.43;;
7080;SDS011;3582;51.506;11.948;2022-10-16T13:46:26;1.00;;;0.87;;
7080;SDS011;3582;51.506;11.948;2022-10-16T13:49:02;3.30;;;3.10;;
7080;SDS011;3582;51.506;11.948;2022-10-16T13:51:29;3.50;;;1.47;;
7080;SDS011;3582;51.506;11.948;2022-10-16T13:53:55;0.90;;;0.90;;
7080;SDS011;3582;51.506;11.948;2022-10-16T13:56:22;1.10;;;1.07;;
7080;SDS011;3582;51.506;11.948;2022-10-16T13:59:03;6.50;;;2.60;;
7080;SDS011;3582;51.506;11.948;2022-10-16T14:01:31;0.70;;;0.70;;
7080;SDS011;3582;51.506;11.948;2022-10-16T14:04:02;1.17;;;1.17;;
7080;SDS011;3582;51.506;11.948;2022-10-16T14:06:30;1.57;;;1.47;;
7080;SDS011;3582;51.506;11.948;2022-10-16T14:09:00;1.30;;;1.20;;
7080;SDS011;3582;51.506;11.948;2022-10-16T14:11:27;1.73;;;1.60;;
7080;SDS011;3582;51.506;11.948;2022-10-16T14:13:53;1.43;;;1.17;;
7080;SDS011;3582;51.506;11.948;2022-10-16T14:16:20;1.90;;;0.90;;
7080;SDS011;3582;51.506;11.948;2022-10-16T14:18:50;3.20;;;1.70;;
7080;SDS011;3582;51.506;11.948;2022-10-16T14:21:20;3.83;;;1.40;;
7080;SDS011;3582;51.506;11.948;2022-10-16T14:23:46;1.07;;;0.97;;
7080;SDS011;3582;51.506;11.948;2022-10-16T14:26:13;3.63;;;1.23;;
7080;SDS011;3582;51.506;11.948;2022-10-16T14:28:39;1.27;;;1.10;;
7080;SDS011;3582;51.506;11.948;2022-10-16T14:33:50;1.27;;;1.23;;
7080;SDS011;3582;51.506;11.948;2022-10-16T14:36:16;3.27;;;1.30;;
7080;SDS011;3582;51.506;11.948;2022-10-16T14:41:15;1.20;;;1.10;;
7080;SDS011;3582;51.506;11.948;2022-10-16T14:43:42;1.00;;;1.00;;
7080;SDS011;3582;51.506;11.948;2022-10-16T14:46:11;1.13;;;1.13;;
7080;SDS011;3582;51.506;11.948;2022-10-16T14:48:42;2.33;;;1.00;;
7080;SDS011;3582;51.506;11.948;2022-10-16T14:51:12;1.90;;;1.33;;
7080;SDS011;3582;51.506;11.948;2022-10-16T14:53:39;2.13;;;1.80;;
7080;SDS011;3582;51.506;11.948;2022-10-16T14:56:23;1.70;;;1.00;;
7080;SDS011;3582;51.506;11.948;2022-10-16T14:58:50;1.20;;;1.20;;
7080;SDS011;3582;51.506;11.948;2022-10-16T15:01:17;0.90;;;0.77;;
7080;SDS011;3582;51.506;11.948;2022-10-16T15:03:43;1.50;;;1.33;;
7080;SDS011;3582;51.506;11.948;2022-10-16T15:06:10;0.97;;;0.80;;
7080;SDS011;3582;51.506;11.948;2022-10-16T15:08:37;1.33;;;1.10;;
7080;SDS011;3582;51.506;11.948;2022-10-16T15:11:03;1.23;;;1.23;;
7080;SDS011;3582;51.506;11.948;2022-10-16T15:13:29;3.23;;;0.87;;
7080;SDS011;3582;51.506;11.948;2022-10-16T15:15:55;2.63;;;1.10;;
7080;SDS011;3582;51.506;11.948;2022-10-16T15:18:21;4.73;;;1.00;;
7080;SDS011;3582;51.506;11.948;2022-10-16T15:20:50;3.50;;;1.27;;
7080;SDS011;3582;51.506;11.948;2022-10-16T15:23:18;1.73;;;1.63;;
7080;SDS011;3582;51.506;11.948;2022-10-16T15:25:46;0.90;;;0.80;;
7080;SDS011;3582;51.506;11.948;2022-10-16T15:28:12;1.70;;;1.20;;
7080;SDS011;3582;51.506;11.948;2022-10-16T15:30:39;7.60;;;1.53;;
7080;SDS011;3582;51.506;11.948;2022-10-16T15:33:05;2.37;;;1.40;;
7080;SDS011;3582;51.506;11.948;2022-10-16T15:35:31;2.53;;;1.10;;
7080;SDS011;3582;51.506;11.948;2022-10-16T15:37:57;1.93;;;1.80;;
7080;SDS011;3582;51.506;11.948;2022-10-16T15:40:23;1.10;;;1.00;;
7080;SDS011;3582;51.506;11.948;2022-10-16T15:42:49;3.53;;;2.33;;
7080;SDS011;3582;51.506;11.948;2022-10-16T15:45:15;3.87;;;1.47;;
7080;SDS011;3582;51.506;11.948;2022-10-16T15:47:41;3.10;;;1.93;;
7080;SDS011;3582;51.506;11.948;2022-10-16T15:50:11;2.07;;;1.87;;
7080;SDS011;3582;51.506;11.948;2022-10-16T15:52:38;9.27;;;1.97;;
7080;SDS011;3582;51.506;11.948;2022-10-16T15:55:04;1.77;;;1.67;;
7080;SDS011;3582;51.506;11.948;2022-10-16T15:57:30;3.10;;;2.00;;
7080;SDS011;3582;51.506;11.948;2022-10-16T15:59:56;2.77;;;2.37;;
7080;SDS011;3582;51.506;11.948;2022-10-16T16:02:22;3.90;;;1.90;;
7080;SDS011;3582;51.506;11.948;2022-10-16T16:04:48;2.10;;;2.00;;
7080;SDS011;3582;51.506;11.948;2022-10-16T16:07:14;1.90;;;1.80;;
7080;SDS011;3582;51.506;11.948;2022-10-16T16:09:40;1.70;;;1.60;;
7080;SDS011;3582;51.506;11.948;2022-10-16T16:12:06;3.23;;;2.23;;
7080;SDS011;3582;51.506;11.948;2022-10-16T16:14:32;1.77;;;1.60;;
7080;SDS011;3582;51.506;11.948;2022-10-16T16:16:58;3.10;;;2.13;;
7080;SDS011;3582;51.506;11.948;2022-10-16T16:19:24;4.83;;;2.20;;
7080;SDS011;3582;51.506;11.948;2022-10-16T16:21:50;2.37;;;2.17;;
7080;SDS011;3582;51.506;11.948;2022-10-16T16:24:16;2.67;;;2.00;;
7080;SDS011;3582;51.506;11.948;2022-10-16T16:26:43;3.20;;;2.10;;
7080;SDS011;3582;51.506;11.948;2022-10-16T16:29:11;2.27;;;2.00;;
7080;SDS011;3582;51.506;11.948;2022-10-16T16:31:38;6.00;;;2.50;;
7080;SDS011;3582;51.506;11.948;2022-10-16T16:34:04;4.27;;;2.23;;
7080;SDS011;3582;51.506;11.948;2022-10-16T16:36:30;5.23;;;2.10;;
7080;SDS011;3582;51.506;11.948;2022-10-16T16:38:57;3.33;;;1.90;;
7080;SDS011;3582;51.506;11.948;2022-10-16T16:41:24;4.00;;;2.43;;
7080;SDS011;3582;51.506;11.948;2022-10-16T16:43:51;4.33;;;2.60;;
7080;SDS011;3582;51.506;11.948;2022-10-16T16:46:17;3.70;;;2.70;;
7080;SDS011;3582;51.506;11.948;2022-10-16T16:48:43;3.60;;;2.90;;
7080;SDS011;3582;51.506;11.948;2022-10-16T16:51:10;3.40;;;2.20;;
7080;SDS011;3582;51.506;11.948;2022-10-16T16:53:40;3.50;;;2.70;;